sensor_id;sensor_type;location;lat;lon;timestamp;temperature;humidity
17968;DHT22;9109;48.050;11.696;2023-03-11T04:47:00;2.70;93.10
17968;DHT22;9109;48.050;11.696;2023-03-11T04:50:02;2.60;93.10
17968;DHT22;9109;48.050;11.696;2023-03-11T04:53:06;2.70;93.30
17968;DHT22;9109;48.050;11.696;2023-03-11T04:56:17;2.60;93.40
17968;DHT22;9109;48.050;11.696;2023-03-11T04:59:23;2.60;93.10
17968;DHT22;9109;48.050;11.696;2023-03-11T05:02:31;2.60;93.00
17968;DHT22;9109;48.050;11.696;2023-03-11T05:05:35;2.60;93.20
17968;DHT22;9109;48.050;11.696;2023-03-11T05:08:37;2.50;93.60
17968;DHT22;9109;48.050;11.696;2023-03-11T05:11:40;2.50;93.40
17968;DHT22;9109;48.050;11.696;2023-03-11T05:14:45;2.40;93.30
17968;DHT22;9109;48.050;11.696;2023-03-11T05:17:57;2.40;93.50
17968;DHT22;9109;48.050;11.696;2023-03-11T05:21:09;2.40;93.40
17968;DHT22;9109;48.050;11.696;2023-03-11T05:24:22;2.50;93.70
17968;DHT22;9109;48.050;11.696;2023-03-11T05:27:35;2.50;93.70
17968;DHT22;9109;48.050;11.696;2023-03-11T05:30:39;2.40;93.70
17968;DHT22;9109;48.050;11.696;2023-03-11T05:33:45;2.40;93.50
17968;DHT22;9109;48.050;11.696;2023-03-11T05:36:47;2.50;93.70
17968;DHT22;9109;48.050;11.696;2023-03-11T05:39:52;2.50;94.10
17968;DHT22;9109;48.050;11.696;2023-03-11T05:42:59;2.60;94.00
17968;DHT22;9109;48.050;11.696;2023-03-11T05:46:01;2.70;94.20
17968;DHT22;9109;48.050;11.696;2023-03-11T05:49:04;2.50;93.70
17968;DHT22;9109;48.050;11.696;2023-03-11T05:52:06;2.60;94.00
17968;DHT22;9109;48.050;11.696;2023-03-11T05:55:09;2.50;93.90
17968;DHT22;9109;48.050;11.696;2023-03-11T05:58:23;2.40;93.90
17968;DHT22;9109;48.050;11.696;2023-03-11T06:01:28;2.40;94.10
17968;DHT22;9109;48.050;11.696;2023-03-11T06:12:35;2.50;94.00
17968;DHT22;9109;48.050;11.696;2023-03-11T06:15:40;2.40;93.70
17968;DHT22;9109;48.050;11.696;2023-03-11T06:18:56;2.30;93.70
17968;DHT22;9109;48.050;11.696;2023-03-11T06:22:00;2.40;93.40
17968;DHT22;9109;48.050;11.696;2023-03-11T06:25:03;2.40;93.80
17968;DHT22;9109;48.050;11.696;2023-03-11T06:28:08;2.40;93.90
17968;DHT22;9109;48.050;11.696;2023-03-11T06:31:12;2.50;93.40
17968;DHT22;9109;48.050;11.696;2023-03-11T06:34:15;2.40;91.90
17968;DHT22;9109;48.050;11.696;2023-03-11T06:37:17;2.30;91.60
17968;DHT22;9109;48.050;11.696;2023-03-11T06:40:20;2.20;91.00
17968;DHT22;9109;48.050;11.696;2023-03-11T06:43:24;2.00;90.40
17968;DHT22;9109;48.050;11.696;2023-03-11T06:46:26;2.00;90.40
17968;DHT22;9109;48.050;11.696;2023-03-11T06:49:28;1.90;89.00
17968;DHT22;9109;48.050;11.696;2023-03-11T06:52:30;1.90;90.60
17968;DHT22;9109;48.050;11.696;2023-03-11T06:55:32;2.00;90.60
17968;DHT22;9109;48.050;11.696;2023-03-11T06:58:36;2.10;90.10
17968;DHT22;9109;48.050;11.696;2023-03-11T07:01:38;2.10;89.90
17968;DHT22;9109;48.050;11.696;2023-03-11T07:04:40;2.20;90.40
17968;DHT22;9109;48.050;11.696;2023-03-11T07:07:42;2.30;90.60
17968;DHT22;9109;48.050;11.696;2023-03-11T07:10:44;2.40;90.20
17968;DHT22;9109;48.050;11.696;2023-03-11T07:13:49;2.50;90.20
17968;DHT22;9109;48.050;11.696;2023-03-11T07:16:51;2.50;89.10
17968;DHT22;9109;48.050;11.696;2023-03-11T07:19:53;2.50;90.00
17968;DHT22;9109;48.050;11.696;2023-03-11T07:22:57;2.60;90.20
17968;DHT22;9109;48.050;11.696;2023-03-11T07:26:02;2.70;90.10
17968;DHT22;9109;48.050;11.696;2023-03-11T07:29:10;2.90;90.00
17968;DHT22;9109;48.050;11.696;2023-03-11T07:32:12;2.90;88.00
17968;DHT22;9109;48.050;11.696;2023-03-11T07:35:14;2.90;89.60
17968;DHT22;9109;48.050;11.696;2023-03-11T07:38:16;3.00;88.40
17968;DHT22;9109;48.050;11.696;2023-03-11T07:41:19;3.00;88.60
17968;DHT22;9109;48.050;11.696;2023-03-11T07:44:22;2.90;88.30
17968;DHT22;9109;48.050;11.696;2023-03-11T07:47:24;2.90;88.40
17968;DHT22;9109;48.050;11.696;2023-03-11T07:50:29;3.10;88.70
17968;DHT22;9109;48.050;11.696;2023-03-11T07:53:31;3.00;89.10
17968;DHT22;9109;48.050;11.696;2023-03-11T07:56:34;3.00;89.10
17968;DHT22;9109;48.050;11.696;2023-03-11T07:59:40;3.00;89.10
17968;DHT22;9109;48.050;11.696;2023-03-11T08:02:47;3.00;88.60
17968;DHT22;9109;48.050;11.696;2023-03-11T08:06:01;3.00;87.80
17968;DHT22;9109;48.050;11.696;2023-03-11T08:09:31;2.90;87.60
17968;DHT22;9109;48.050;11.696;2023-03-11T08:13:15;3.00;89.30
17968;DHT22;9109;48.050;11.696;2023-03-11T08:16:20;3.20;90.00
17968;DHT22;9109;48.050;11.696;2023-03-11T08:19:22;3.10;89.40
17968;DHT22;9109;48.050;11.696;2023-03-11T08:22:24;3.20;88.90
17968;DHT22;9109;48.050;11.696;2023-03-11T08:25:26;3.30;89.50
17968;DHT22;9109;48.050;11.696;2023-03-11T08:28:28;3.40;89.00
17968;DHT22;9109;48.050;11.696;2023-03-11T08:31:32;3.30;89.00
17968;DHT22;9109;48.050;11.696;2023-03-11T08:34:36;3.20;88.20
17968;DHT22;9109;48.050;11.696;2023-03-11T08:37:39;3.10;87.30
17968;DHT22;9109;48.050;11.696;2023-03-11T08:40:40;3.10;88.40
17968;DHT22;9109;48.050;11.696;2023-03-11T08:43:42;2.90;87.40
17968;DHT22;9109;48.050;11.696;2023-03-11T08:46:46;2.90;87.60
17968;DHT22;9109;48.050;11.696;2023-03-11T08:49:47;3.00;87.50
17968;DHT22;9109;48.050;11.696;2023-03-11T08:52:49;3.00;87.70
17968;DHT22;9109;48.050;11.696;2023-03-11T08:55:52;3.10;87.50
17968;DHT22;9109;48.050;11.696;2023-03-11T08:58:54;3.10;87.90
17968;DHT22;9109;48.050;11.696;2023-03-11T09:01:57;3.00;88.00
17968;DHT22;9109;48.050;11.696;2023-03-11T09:04:59;3.20;88.50
17968;DHT22;9109;48.050;11.696;2023-03-11T09:08:01;3.30;88.20
17968;DHT22;9109;48.050;11.696;2023-03-11T09:11:04;3.50;87.80
17968;DHT22;9109;48.050;11.696;2023-03-11T09:14:06;3.60;87.60
17968;DHT22;9109;48.050;11.696;2023-03-11T09:17:10;3.70;87.30
17968;DHT22;9109;48.050;11.696;2023-03-11T09:20:14;3.80;87.20
17968;DHT22;9109;48.050;11.696;2023-03-11T09:23:17;3.80;85.50
17968;DHT22;9109;48.050;11.696;2023-03-11T09:26:19;3.70;85.60
17968;DHT22;9109;48.050;11.696;2023-03-11T09:29:21;3.70;86.10
17968;DHT22;9109;48.050;11.696;2023-03-11T09:32:24;3.80;86.40
17968;DHT22;9109;48.050;11.696;2023-03-11T09:35:26;4.00;86.20
17968;DHT22;9109;48.050;11.696;2023-03-11T09:38:28;4.10;86.30
17968;DHT22;9109;48.050;11.696;2023-03-11T09:41:35;4.20;85.80
17968;DHT22;9109;48.050;11.696;2023-03-11T09:44:41;4.40;83.80
17968;DHT22;9109;48.050;11.696;2023-03-11T09:47:54;4.40;84.00
17968;DHT22;9109;48.050;11.696;2023-03-11T09:51:06;4.30;83.90
17968;DHT22;9109;48.050;11.696;2023-03-11T09:54:10;4.20;85.00
17968;DHT22;9109;48.050;11.696;2023-03-11T09:57:17;4.00;82.50
17968;DHT22;9109;48.050;11.696;2023-03-11T10:00:22;3.70;81.80
17968;DHT22;9109;48.050;11.696;2023-03-11T10:03:30;3.80;82.80
17968;DHT22;9109;48.050;11.696;2023-03-11T10:06:32;3.70;81.30
17968;DHT22;9109;48.050;11.696;2023-03-11T10:09:36;3.80;82.40
17968;DHT22;9109;48.050;11.696;2023-03-11T10:12:45;4.00;82.00
17968;DHT22;9109;48.050;11.696;2023-03-11T10:15:53;4.10;80.20
17968;DHT22;9109;48.050;11.696;2023-03-11T10:19:08;3.90;79.90
17968;DHT22;9109;48.050;11.696;2023-03-11T10:22:16;4.20;81.90
17968;DHT22;9109;48.050;11.696;2023-03-11T10:25:24;4.50;80.80
17968;DHT22;9109;48.050;11.696;2023-03-11T10:28:32;4.30;77.40
17968;DHT22;9109;48.050;11.696;2023-03-11T10:31:39;4.40;80.40
17968;DHT22;9109;48.050;11.696;2023-03-11T10:34:45;4.50;80.50
17968;DHT22;9109;48.050;11.696;2023-03-11T10:37:53;4.50;78.80
17968;DHT22;9109;48.050;11.696;2023-03-11T10:40:57;4.30;78.50
17968;DHT22;9109;48.050;11.696;2023-03-11T10:44:05;4.00;77.80
17968;DHT22;9109;48.050;11.696;2023-03-11T10:47:14;3.90;78.40
17968;DHT22;9109;48.050;11.696;2023-03-11T10:50:19;4.00;78.90
17968;DHT22;9109;48.050;11.696;2023-03-11T10:53:21;4.30;78.90
17968;DHT22;9109;48.050;11.696;2023-03-11T10:56:26;4.70;78.80
17968;DHT22;9109;48.050;11.696;2023-03-11T10:59:30;4.80;77.20
17968;DHT22;9109;48.050;11.696;2023-03-11T11:02:38;4.70;75.80
17968;DHT22;9109;48.050;11.696;2023-03-11T11:05:41;4.60;73.90
17968;DHT22;9109;48.050;11.696;2023-03-11T11:08:45;4.80;75.50
17968;DHT22;9109;48.050;11.696;2023-03-11T11:12:01;4.80;73.40
17968;DHT22;9109;48.050;11.696;2023-03-11T11:15:04;4.90;74.20
17968;DHT22;9109;48.050;11.696;2023-03-11T11:18:17;4.80;74.60
17968;DHT22;9109;48.050;11.696;2023-03-11T11:21:30;5.20;75.60
17968;DHT22;9109;48.050;11.696;2023-03-11T11:24:33;5.30;73.90
17968;DHT22;9109;48.050;11.696;2023-03-11T11:27:35;5.40;73.00
17968;DHT22;9109;48.050;11.696;2023-03-11T11:30:51;5.40;73.80
17968;DHT22;9109;48.050;11.696;2023-03-11T11:33:54;5.60;73.10
17968;DHT22;9109;48.050;11.696;2023-03-11T11:36:59;5.40;71.20
17968;DHT22;9109;48.050;11.696;2023-03-11T11:40:05;5.30;70.00
17968;DHT22;9109;48.050;11.696;2023-03-11T11:43:13;5.40;71.90
17968;DHT22;9109;48.050;11.696;2023-03-11T11:46:20;5.40;69.90
17968;DHT22;9109;48.050;11.696;2023-03-11T11:49:26;5.70;73.20
17968;DHT22;9109;48.050;11.696;2023-03-11T11:52:36;6.10;72.60
17968;DHT22;9109;48.050;11.696;2023-03-11T11:55:45;6.20;69.10
17968;DHT22;9109;48.050;11.696;2023-03-11T11:58:47;5.60;68.80
17968;DHT22;9109;48.050;11.696;2023-03-11T12:01:59;5.80;70.60
17968;DHT22;9109;48.050;11.696;2023-03-11T12:05:08;6.00;71.50
17968;DHT22;9109;48.050;11.696;2023-03-11T12:08:17;6.50;70.80
17968;DHT22;9109;48.050;11.696;2023-03-11T12:11:23;6.30;69.40
17968;DHT22;9109;48.050;11.696;2023-03-11T12:14:33;6.00;71.50
17968;DHT22;9109;48.050;11.696;2023-03-11T12:17:40;6.10;72.60
17968;DHT22;9109;48.050;11.696;2023-03-11T12:20:44;5.90;70.10
17968;DHT22;9109;48.050;11.696;2023-03-11T12:24:01;5.40;69.60
17968;DHT22;9109;48.050;11.696;2023-03-11T12:27:17;5.60;69.90
17968;DHT22;9109;48.050;11.696;2023-03-11T12:30:24;5.80;69.90
17968;DHT22;9109;48.050;11.696;2023-03-11T12:33:32;5.90;69.40
17968;DHT22;9109;48.050;11.696;2023-03-11T12:36:36;5.60;67.70
17968;DHT22;9109;48.050;11.696;2023-03-11T12:39:40;5.50;68.60
17968;DHT22;9109;48.050;11.696;2023-03-11T12:42:42;5.70;70.80
17968;DHT22;9109;48.050;11.696;2023-03-11T12:45:50;5.70;70.00
17968;DHT22;9109;48.050;11.696;2023-03-11T12:49:09;5.60;69.30
17968;DHT22;9109;48.050;11.696;2023-03-11T12:52:18;5.60;70.20
17968;DHT22;9109;48.050;11.696;2023-03-11T12:55:33;5.90;68.20
17968;DHT22;9109;48.050;11.696;2023-03-11T12:59:06;5.70;66.30
17968;DHT22;9109;48.050;11.696;2023-03-11T13:02:31;5.90;68.30
17968;DHT22;9109;48.050;11.696;2023-03-11T13:05:49;5.70;68.00
17968;DHT22;9109;48.050;11.696;2023-03-11T13:08:54;5.80;69.60
17968;DHT22;9109;48.050;11.696;2023-03-11T13:11:58;5.90;68.50
17968;DHT22;9109;48.050;11.696;2023-03-11T13:15:30;5.90;68.70
17968;DHT22;9109;48.050;11.696;2023-03-11T13:18:32;5.80;69.60
17968;DHT22;9109;48.050;11.696;2023-03-11T13:21:38;5.70;68.50
17968;DHT22;9109;48.050;11.696;2023-03-11T13:24:50;5.80;68.30
17968;DHT22;9109;48.050;11.696;2023-03-11T13:27:57;5.80;68.40
17968;DHT22;9109;48.050;11.696;2023-03-11T13:31:15;5.70;70.60
17968;DHT22;9109;48.050;11.696;2023-03-11T13:34:24;6.30;70.60
17968;DHT22;9109;48.050;11.696;2023-03-11T13:37:34;6.40;68.80
17968;DHT22;9109;48.050;11.696;2023-03-11T13:40:40;6.40;69.70
17968;DHT22;9109;48.050;11.696;2023-03-11T13:43:48;6.40;67.40
17968;DHT22;9109;48.050;11.696;2023-03-11T13:46:53;6.10;67.00
17968;DHT22;9109;48.050;11.696;2023-03-11T13:50:01;6.30;69.30
17968;DHT22;9109;48.050;11.696;2023-03-11T13:53:08;6.40;67.90
17968;DHT22;9109;48.050;11.696;2023-03-11T13:56:15;6.50;69.30
17968;DHT22;9109;48.050;11.696;2023-03-11T13:59:23;6.50;68.30
17968;DHT22;9109;48.050;11.696;2023-03-11T14:02:26;6.30;67.10
17968;DHT22;9109;48.050;11.696;2023-03-11T14:05:30;6.10;68.70
17968;DHT22;9109;48.050;11.696;2023-03-11T14:08:34;6.00;66.40
17968;DHT22;9109;48.050;11.696;2023-03-11T14:11:36;6.00;68.00
17968;DHT22;9109;48.050;11.696;2023-03-11T14:14:48;6.00;67.20
17968;DHT22;9109;48.050;11.696;2023-03-11T14:17:52;6.20;67.40
17968;DHT22;9109;48.050;11.696;2023-03-11T14:20:55;6.20;68.40
17968;DHT22;9109;48.050;11.696;2023-03-11T14:23:57;6.10;66.70
17968;DHT22;9109;48.050;11.696;2023-03-11T14:27:01;6.00;66.50
17968;DHT22;9109;48.050;11.696;2023-03-11T14:30:06;5.90;67.70
17968;DHT22;9109;48.050;11.696;2023-03-11T14:33:20;6.10;69.30
17968;DHT22;9109;48.050;11.696;2023-03-11T14:36:22;6.20;65.20
17968;DHT22;9109;48.050;11.696;2023-03-11T14:39:29;6.00;66.90
17968;DHT22;9109;48.050;11.696;2023-03-11T14:42:35;5.90;65.90
17968;DHT22;9109;48.050;11.696;2023-03-11T14:45:39;6.00;65.70
17968;DHT22;9109;48.050;11.696;2023-03-11T14:48:43;5.90;68.40
17968;DHT22;9109;48.050;11.696;2023-03-11T14:51:54;5.90;68.80
17968;DHT22;9109;48.050;11.696;2023-03-11T14:54:59;6.30;69.60
17968;DHT22;9109;48.050;11.696;2023-03-11T14:58:05;6.40;67.90
17968;DHT22;9109;48.050;11.696;2023-03-11T15:01:14;6.30;66.60
17968;DHT22;9109;48.050;11.696;2023-03-11T15:04:25;6.10;68.10
17968;DHT22;9109;48.050;11.696;2023-03-11T15:07:28;5.90;66.30
17968;DHT22;9109;48.050;11.696;2023-03-11T15:10:30;5.90;68.50
17968;DHT22;9109;48.050;11.696;2023-03-11T15:13:32;5.80;67.70
17968;DHT22;9109;48.050;11.696;2023-03-11T15:16:36;5.80;68.30
17968;DHT22;9109;48.050;11.696;2023-03-11T15:19:38;5.80;69.20
17968;DHT22;9109;48.050;11.696;2023-03-11T15:22:40;5.90;69.40
17968;DHT22;9109;48.050;11.696;2023-03-11T15:25:48;5.90;67.30
17968;DHT22;9109;48.050;11.696;2023-03-11T15:28:55;5.70;67.60
17968;DHT22;9109;48.050;11.696;2023-03-11T15:31:59;5.60;67.70
17968;DHT22;9109;48.050;11.696;2023-03-11T15:35:01;5.50;68.50
17968;DHT22;9109;48.050;11.696;2023-03-11T15:38:12;5.50;69.60
17968;DHT22;9109;48.050;11.696;2023-03-11T15:41:18;5.40;70.50
17968;DHT22;9109;48.050;11.696;2023-03-11T15:44:24;5.50;72.00
17968;DHT22;9109;48.050;11.696;2023-03-11T15:47:28;5.50;70.40
17968;DHT22;9109;48.050;11.696;2023-03-11T15:50:30;5.50;70.00
17968;DHT22;9109;48.050;11.696;2023-03-11T15:53:33;5.60;70.20
17968;DHT22;9109;48.050;11.696;2023-03-11T15:56:35;5.50;69.50
17968;DHT22;9109;48.050;11.696;2023-03-11T15:59:37;5.40;70.60
17968;DHT22;9109;48.050;11.696;2023-03-11T16:02:42;5.20;68.20
17968;DHT22;9109;48.050;11.696;2023-03-11T16:05:44;4.90;69.90
17968;DHT22;9109;48.050;11.696;2023-03-11T16:08:46;4.60;71.50
17968;DHT22;9109;48.050;11.696;2023-03-11T16:11:47;4.60;73.20
17968;DHT22;9109;48.050;11.696;2023-03-11T16:14:49;4.60;74.90
17968;DHT22;9109;48.050;11.696;2023-03-11T16:17:54;4.40;74.90
17968;DHT22;9109;48.050;11.696;2023-03-11T16:20:56;4.50;74.30
17968;DHT22;9109;48.050;11.696;2023-03-11T16:23:58;4.40;74.60
17968;DHT22;9109;48.050;11.696;2023-03-11T16:27:01;4.20;74.90
17968;DHT22;9109;48.050;11.696;2023-03-11T16:30:03;4.00;75.60
17968;DHT22;9109;48.050;11.696;2023-03-11T16:33:06;3.90;75.90
17968;DHT22;9109;48.050;11.696;2023-03-11T16:36:09;3.70;76.20
17968;DHT22;9109;48.050;11.696;2023-03-11T16:39:11;3.70;78.00
17968;DHT22;9109;48.050;11.696;2023-03-11T16:42:20;3.70;79.10
17968;DHT22;9109;48.050;11.696;2023-03-11T16:45:22;3.50;78.90
17968;DHT22;9109;48.050;11.696;2023-03-11T16:48:26;3.40;79.30
17968;DHT22;9109;48.050;11.696;2023-03-11T16:51:28;3.40;79.70
17968;DHT22;9109;48.050;11.696;2023-03-11T16:54:30;3.30;79.20
17968;DHT22;9109;48.050;11.696;2023-03-11T16:57:31;3.30;79.80
17968;DHT22;9109;48.050;11.696;2023-03-11T17:00:34;3.10;79.30
17968;DHT22;9109;48.050;11.696;2023-03-11T17:03:37;3.00;80.10
17968;DHT22;9109;48.050;11.696;2023-03-11T17:06:39;2.90;79.40
17968;DHT22;9109;48.050;11.696;2023-03-11T17:09:41;2.80;79.70
17968;DHT22;9109;48.050;11.696;2023-03-11T17:12:43;2.90;80.20
17968;DHT22;9109;48.050;11.696;2023-03-11T17:15:51;2.90;80.30
17968;DHT22;9109;48.050;11.696;2023-03-11T17:19:00;2.90;81.10
17968;DHT22;9109;48.050;11.696;2023-03-11T17:22:02;3.10;80.00
17968;DHT22;9109;48.050;11.696;2023-03-11T17:25:05;3.10;80.00
17968;DHT22;9109;48.050;11.696;2023-03-11T17:28:07;3.00;79.90
17968;DHT22;9109;48.050;11.696;2023-03-11T17:31:13;2.90;80.40
17968;DHT22;9109;48.050;11.696;2023-03-11T17:34:16;2.90;80.60
17968;DHT22;9109;48.050;11.696;2023-03-11T17:37:18;3.10;80.10
17968;DHT22;9109;48.050;11.696;2023-03-11T17:40:20;3.10;80.40
17968;DHT22;9109;48.050;11.696;2023-03-11T17:43:22;3.00;81.20
17968;DHT22;9109;48.050;11.696;2023-03-11T17:46:24;2.90;81.50
17968;DHT22;9109;48.050;11.696;2023-03-11T17:49:28;2.80;82.20
17968;DHT22;9109;48.050;11.696;2023-03-11T17:52:29;2.80;82.10
17968;DHT22;9109;48.050;11.696;2023-03-11T17:55:32;2.70;82.80
17968;DHT22;9109;48.050;11.696;2023-03-11T17:58:34;2.70;83.70
17968;DHT22;9109;48.050;11.696;2023-03-11T18:01:36;2.70;81.80
17968;DHT22;9109;48.050;11.696;2023-03-11T18:04:40;2.70;83.20
17968;DHT22;9109;48.050;11.696;2023-03-11T18:07:45;2.80;83.50
17968;DHT22;9109;48.050;11.696;2023-03-11T18:10:48;3.10;84.00
17968;DHT22;9109;48.050;11.696;2023-03-11T18:13:50;3.20;83.40
17968;DHT22;9109;48.050;11.696;2023-03-11T18:16:52;3.30;83.50
17968;DHT22;9109;48.050;11.696;2023-03-11T18:19:57;3.40;82.30
17968;DHT22;9109;48.050;11.696;2023-03-11T18:22:59;3.50;82.80
17968;DHT22;9109;48.050;11.696;2023-03-11T18:26:03;3.50;82.60
17968;DHT22;9109;48.050;11.696;2023-03-11T18:29:05;3.60;82.80
17968;DHT22;9109;48.050;11.696;2023-03-11T18:32:07;3.50;81.50
17968;DHT22;9109;48.050;11.696;2023-03-11T18:35:10;3.30;81.20
17968;DHT22;9109;48.050;11.696;2023-03-11T18:38:13;3.40;82.30
17968;DHT22;9109;48.050;11.696;2023-03-11T18:41:15;3.50;81.80
17968;DHT22;9109;48.050;11.696;2023-03-11T18:44:17;3.60;82.20
17968;DHT22;9109;48.050;11.696;2023-03-11T18:47:20;3.70;82.20
17968;DHT22;9109;48.050;11.696;2023-03-11T18:50:23;3.80;81.10
17968;DHT22;9109;48.050;11.696;2023-03-11T18:53:26;3.70;81.90
17968;DHT22;9109;48.050;11.696;2023-03-11T18:56:27;3.80;83.50
17968;DHT22;9109;48.050;11.696;2023-03-11T18:59:31;3.80;82.20
17968;DHT22;9109;48.050;11.696;2023-03-11T19:02:33;3.80;81.80
17968;DHT22;9109;48.050;11.696;2023-03-11T19:05:36;3.80;83.10
17968;DHT22;9109;48.050;11.696;2023-03-11T19:08:38;3.80;84.60
17968;DHT22;9109;48.050;11.696;2023-03-11T19:11:40;3.80;82.20
17968;DHT22;9109;48.050;11.696;2023-03-11T19:14:42;3.70;81.50
17968;DHT22;9109;48.050;11.696;2023-03-11T19:17:44;3.50;82.50
17968;DHT22;9109;48.050;11.696;2023-03-11T19:20:56;3.60;84.30
17968;DHT22;9109;48.050;11.696;2023-03-11T19:23:58;3.70;85.70
17968;DHT22;9109;48.050;11.696;2023-03-11T19:26:59;3.70;84.70
17968;DHT22;9109;48.050;11.696;2023-03-11T19:30:01;3.70;83.60
17968;DHT22;9109;48.050;11.696;2023-03-11T19:33:03;3.60;82.40
17968;DHT22;9109;48.050;11.696;2023-03-11T19:36:07;3.50;82.00
17968;DHT22;9109;48.050;11.696;2023-03-11T19:39:09;3.50;85.00
17968;DHT22;9109;48.050;11.696;2023-03-11T19:42:11;3.60;86.00
17968;DHT22;9109;48.050;11.696;2023-03-11T19:45:13;3.60;85.80
17968;DHT22;9109;48.050;11.696;2023-03-11T19:48:15;3.60;86.30
17968;DHT22;9109;48.050;11.696;2023-03-11T19:51:19;3.60;86.90
17968;DHT22;9109;48.050;11.696;2023-03-11T19:54:21;3.60;86.40
17968;DHT22;9109;48.050;11.696;2023-03-11T19:57:23;3.60;87.20
17968;DHT22;9109;48.050;11.696;2023-03-11T20:00:25;3.60;86.30
17968;DHT22;9109;48.050;11.696;2023-03-11T20:03:28;3.60;86.80
17968;DHT22;9109;48.050;11.696;2023-03-11T20:06:32;3.60;88.20
17968;DHT22;9109;48.050;11.696;2023-03-11T20:09:34;3.60;88.10
17968;DHT22;9109;48.050;11.696;2023-03-11T20:12:36;3.70;88.20
17968;DHT22;9109;48.050;11.696;2023-03-11T20:15:38;3.70;87.40
17968;DHT22;9109;48.050;11.696;2023-03-11T20:18:41;3.70;88.30
17968;DHT22;9109;48.050;11.696;2023-03-11T20:21:44;3.60;88.60
17968;DHT22;9109;48.050;11.696;2023-03-11T20:24:46;3.60;89.50
17968;DHT22;9109;48.050;11.696;2023-03-11T20:27:48;3.70;89.10
17968;DHT22;9109;48.050;11.696;2023-03-11T20:30:50;3.60;88.70
17968;DHT22;9109;48.050;11.696;2023-03-11T20:33:53;3.50;89.30
17968;DHT22;9109;48.050;11.696;2023-03-11T20:36:56;3.60;89.90
17968;DHT22;9109;48.050;11.696;2023-03-11T20:39:58;3.60;89.60
17968;DHT22;9109;48.050;11.696;2023-03-11T20:43:00;3.50;89.50
17968;DHT22;9109;48.050;11.696;2023-03-11T20:46:03;3.50;90.00
17968;DHT22;9109;48.050;11.696;2023-03-11T20:49:05;3.60;90.10
17968;DHT22;9109;48.050;11.696;2023-03-11T20:52:08;3.60;90.10
17968;DHT22;9109;48.050;11.696;2023-03-11T20:55:10;3.60;90.20
17968;DHT22;9109;48.050;11.696;2023-03-11T20:58:12;3.50;89.80
17968;DHT22;9109;48.050;11.696;2023-03-11T21:01:16;3.50;90.20
17968;DHT22;9109;48.050;11.696;2023-03-11T21:04:18;3.50;90.40
17968;DHT22;9109;48.050;11.696;2023-03-11T21:07:25;3.60;90.60
17968;DHT22;9109;48.050;11.696;2023-03-11T21:10:28;3.50;90.30
17968;DHT22;9109;48.050;11.696;2023-03-11T21:13:30;3.60;90.30
17968;DHT22;9109;48.050;11.696;2023-03-11T21:16:35;3.60;90.10
17968;DHT22;9109;48.050;11.696;2023-03-11T21:19:38;3.60;90.30
17968;DHT22;9109;48.050;11.696;2023-03-11T21:22:41;3.40;89.80
17968;DHT22;9109;48.050;11.696;2023-03-11T21:25:45;3.40;90.30
17968;DHT22;9109;48.050;11.696;2023-03-11T21:28:47;3.40;90.50
17968;DHT22;9109;48.050;11.696;2023-03-11T21:31:48;3.20;90.20
17968;DHT22;9109;48.050;11.696;2023-03-11T21:34:53;3.20;90.80
17968;DHT22;9109;48.050;11.696;2023-03-11T21:37:58;3.30;91.20
17968;DHT22;9109;48.050;11.696;2023-03-11T21:41:04;3.40;91.00
17968;DHT22;9109;48.050;11.696;2023-03-11T21:44:06;3.30;90.80
17968;DHT22;9109;48.050;11.696;2023-03-11T21:47:11;3.30;90.80
17968;DHT22;9109;48.050;11.696;2023-03-11T21:50:13;3.20;90.70
17968;DHT22;9109;48.050;11.696;2023-03-11T21:53:16;3.30;91.10
17968;DHT22;9109;48.050;11.696;2023-03-11T21:56:18;3.10;90.50
17968;DHT22;9109;48.050;11.696;2023-03-11T21:59:20;3.20;91.10
17968;DHT22;9109;48.050;11.696;2023-03-11T22:13:28;3.00;91.10
17968;DHT22;9109;48.050;11.696;2023-03-11T22:16:49;2.80;91.30
17968;DHT22;9109;48.050;11.696;2023-03-11T22:20:05;2.70;91.60
17968;DHT22;9109;48.050;11.696;2023-03-11T22:23:26;2.60;91.50
17968;DHT22;9109;48.050;11.696;2023-03-11T22:26:53;2.80;91.80
17968;DHT22;9109;48.050;11.696;2023-03-11T22:30:20;2.80;91.80
17968;DHT22;9109;48.050;11.696;2023-03-11T22:33:37;2.80;91.80
17968;DHT22;9109;48.050;11.696;2023-03-11T22:37:01;2.80;91.60
17968;DHT22;9109;48.050;11.696;2023-03-11T22:40:29;2.80;91.80
17968;DHT22;9109;48.050;11.696;2023-03-11T22:43:53;2.50;91.60
17968;DHT22;9109;48.050;11.696;2023-03-11T23:39:04;2.70;93.00
17968;DHT22;9109;48.050;11.696;2023-03-11T23:42:19;2.40;92.00
17968;DHT22;9109;48.050;11.696;2023-03-11T23:45:35;2.30;92.60
17968;DHT22;9109;48.050;11.696;2023-03-11T23:49:35;2.30;92.90
17968;DHT22;9109;48.050;11.696;2023-03-11T23:53:01;2.40;93.30
17968;DHT22;9109;48.050;11.696;2023-03-11T23:56:54;2.40;93.30
